Janesville, Wisconsin
Current Conditions -  °F | °C
As of 6:45 AM on Thursday 27 Nov 2014 (Local Time) from KJVL Reporting Station
Light Snow Light Snow  
Wind Chill: 16°   Ceiling: 1200
Heat Index: 25°   Visibility: 7mi
Dew Point: 21°   Wind: 8mph
Humidity: 86%   Direction: 330°NNW
Pressure: 30.3"   Gusts: NA
Location:  42.69°N, 89.02°W
Report Text: KJVL 271245Z 33007KT 7SM -SN OVC012 M04/M06 A3030
Loading
Personal Weather Stations






























Interactive Weather Map New forecast layout! Learn more

10-Day Weather Forecast

Advertisements
Track Severe Weather on mobile